createdAt,value
2023-01-08T00:00:53.712Z,8.43
2023-01-08T00:03:21.855Z,6.33
2023-01-08T00:05:50.161Z,6.60
2023-01-08T00:08:18.220Z,6.80
2023-01-08T00:10:54.727Z,6.53
2023-01-08T00:13:23.316Z,6.90
2023-01-08T00:15:51.600Z,6.73
2023-01-08T00:18:19.630Z,6.70
2023-01-08T00:20:48.292Z,6.53
2023-01-08T00:23:17.430Z,6.57
2023-01-08T00:25:45.458Z,7.10
2023-01-08T00:28:15.902Z,6.77
2023-01-08T00:30:44.371Z,6.40
2023-01-08T00:33:13.048Z,7.13
2023-01-08T00:35:41.793Z,6.80
2023-01-08T00:38:09.821Z,6.87
2023-01-08T00:40:38.603Z,7.03
2023-01-08T00:43:06.947Z,6.73
2023-01-08T00:45:36.769Z,6.80
2023-01-08T00:48:04.947Z,7.40
2023-01-08T00:50:32.964Z,6.63
2023-01-08T00:53:00.997Z,6.83
2023-01-08T00:55:29.047Z,6.53
2023-01-08T00:57:58.178Z,6.50
2023-01-08T01:00:26.571Z,6.10
2023-01-08T01:02:55.990Z,6.47
2023-01-08T01:05:24.047Z,6.70
2023-01-08T01:07:52.113Z,6.43
2023-01-08T01:10:20.459Z,6.80
2023-01-08T01:12:48.468Z,6.77
2023-01-08T01:15:18.393Z,6.50
2023-01-08T01:17:47.483Z,6.60
2023-01-08T01:20:18.155Z,7.53
2023-01-08T01:22:46.206Z,6.77
2023-01-08T01:25:14.238Z,7.17
2023-01-08T01:27:42.289Z,6.40
2023-01-08T01:30:11.765Z,7.60
2023-01-08T01:32:39.818Z,6.73
2023-01-08T01:35:08.624Z,6.60
2023-01-08T01:37:38.169Z,6.77
2023-01-08T01:40:07.357Z,6.03
2023-01-08T01:42:41.371Z,6.57
2023-01-08T01:45:19.348Z,6.77
2023-01-08T01:47:49.037Z,6.40
2023-01-08T01:50:21.286Z,6.60
2023-01-08T01:52:54.348Z,6.77
2023-01-08T01:55:22.480Z,6.07
2023-01-08T01:57:56.662Z,5.13
2023-01-08T02:00:25.505Z,5.70
2023-01-08T02:02:54.154Z,5.93
2023-01-08T02:05:22.926Z,5.23
2023-01-08T02:08:00.780Z,5.63
2023-01-08T02:10:35.222Z,5.30
2023-01-08T02:13:08.806Z,5.90
2023-01-08T02:15:45.362Z,5.43
2023-01-08T02:18:19.755Z,5.60
2023-01-08T02:20:51.209Z,5.07
2023-01-08T02:23:31.541Z,5.43
2023-01-08T02:26:20.183Z,4.73
2023-01-08T02:28:52.583Z,5.70
2023-01-08T02:31:22.812Z,4.93
2023-01-08T02:33:50.845Z,5.27
2023-01-08T02:36:38.272Z,5.90
2023-01-08T02:39:22.200Z,5.53
2023-01-08T02:42:10.255Z,6.07
2023-01-08T02:44:55.233Z,5.43
2023-01-08T02:47:28.600Z,6.43
2023-01-08T02:50:13.687Z,6.20
2023-01-08T02:52:48.561Z,6.50
2023-01-08T02:55:17.625Z,7.03
2023-01-08T02:57:48.107Z,6.80
2023-01-08T03:00:16.796Z,6.67
2023-01-08T03:02:45.233Z,7.80
2023-01-08T03:05:21.068Z,7.63
2023-01-08T03:07:49.737Z,7.57
2023-01-08T03:10:18.844Z,7.60
2023-01-08T03:12:54.674Z,7.43
2023-01-08T03:15:28.163Z,7.13
2023-01-08T03:17:59.909Z,7.43
2023-01-08T03:20:28.518Z,6.40
2023-01-08T03:22:58.573Z,6.67
2023-01-08T03:25:29.241Z,7.07
2023-01-08T03:28:02.495Z,6.70
2023-01-08T03:30:31.982Z,7.17
2023-01-08T03:33:02.199Z,6.83
2023-01-08T03:35:31.364Z,7.90
2023-01-08T03:38:09.359Z,7.90
2023-01-08T03:40:42.326Z,6.73
2023-01-08T03:43:11.819Z,7.53
2023-01-08T03:45:44.013Z,7.53
2023-01-08T03:48:12.598Z,7.60
2023-01-08T03:50:41.745Z,7.20
2023-01-08T03:53:10.143Z,7.60
2023-01-08T03:55:38.165Z,7.40
2023-01-08T03:58:06.213Z,7.47
2023-01-08T04:00:35.607Z,7.70
2023-01-08T04:03:05.778Z,7.43
2023-01-08T04:05:34.002Z,7.50
2023-01-08T04:08:02.055Z,7.60
2023-01-08T04:10:30.082Z,7.73
2023-01-08T04:12:58.123Z,6.47
2023-01-08T04:15:26.171Z,6.83
2023-01-08T04:17:55.986Z,7.00
2023-01-08T04:20:23.988Z,7.00
2023-01-08T04:22:51.997Z,6.80
2023-01-08T04:25:20.407Z,7.07
2023-01-08T04:27:48.418Z,7.40
2023-01-08T04:30:16.530Z,6.53
2023-01-08T04:32:44.540Z,6.70
2023-01-08T04:35:13.927Z,7.10
2023-01-08T04:37:41.998Z,7.13
2023-01-08T04:40:11.230Z,7.70
2023-01-08T04:42:39.219Z,7.23
2023-01-08T04:45:08.537Z,7.33
2023-01-08T04:47:36.562Z,7.90
2023-01-08T04:50:04.772Z,7.83
2023-01-08T04:52:34.131Z,8.30
2023-01-08T04:55:02.229Z,9.23
2023-01-08T04:57:30.216Z,7.40
2023-01-08T04:59:58.215Z,7.60
2023-01-08T05:02:26.319Z,7.87
2023-01-08T05:04:54.478Z,7.83
2023-01-08T05:07:22.471Z,10.07
2023-01-08T05:09:51.879Z,13.33
2023-01-08T05:12:20.007Z,19.50
2023-01-08T05:14:48.127Z,9.07
2023-01-08T05:17:16.145Z,14.77
2023-01-08T05:19:44.162Z,24.93
2023-01-08T05:22:12.197Z,12.50
2023-01-08T05:24:40.246Z,9.03
2023-01-08T05:27:09.637Z,10.73
2023-01-08T05:29:37.680Z,32.03
2023-01-08T05:32:07.539Z,42.13
2023-01-08T05:34:35.542Z,21.97
2023-01-08T05:37:03.544Z,33.23
2023-01-08T05:39:31.629Z,18.60
2023-01-08T05:41:59.668Z,19.93
2023-01-08T05:44:29.023Z,25.37
2023-01-08T05:46:57.989Z,49.50
2023-01-08T05:49:25.996Z,39.83
2023-01-08T05:51:54.031Z,61.73
2023-01-08T05:54:22.053Z,54.97
2023-01-08T05:56:50.166Z,47.37
2023-01-08T05:59:18.259Z,45.30
2023-01-08T06:01:47.764Z,30.53
2023-01-08T06:04:15.886Z,22.37
2023-01-08T06:06:43.972Z,30.77
2023-01-08T06:09:12.458Z,19.93
2023-01-08T06:11:40.553Z,9.70
2023-01-08T06:14:08.569Z,21.87
2023-01-08T06:16:36.602Z,31.10
2023-01-08T06:19:05.966Z,15.10
2023-01-08T06:21:34.036Z,14.47
2023-01-08T06:24:02.048Z,17.37
2023-01-08T06:26:30.103Z,14.20
2023-01-08T06:28:58.119Z,9.73
2023-01-08T06:31:26.155Z,10.37
2023-01-08T06:33:54.210Z,9.70
2023-01-08T06:36:23.722Z,9.57
2023-01-08T06:38:51.728Z,9.53
2023-01-08T06:41:19.826Z,10.10
2023-01-08T06:43:47.837Z,9.97
2023-01-08T06:46:15.911Z,9.67
2023-01-08T06:48:44.138Z,9.93
2023-01-08T06:51:12.223Z,8.60
2023-01-08T06:53:41.573Z,8.37
2023-01-08T06:56:11.078Z,8.03
2023-01-08T06:58:40.268Z,9.97
2023-01-08T07:01:08.302Z,8.00
2023-01-08T07:03:36.409Z,8.53
2023-01-08T07:06:04.683Z,9.27
2023-01-08T07:08:32.676Z,9.07
2023-01-08T07:11:05.338Z,9.60
2023-01-08T07:13:33.363Z,9.23
2023-01-08T07:16:07.362Z,8.90
2023-01-08T07:18:36.155Z,7.20
2023-01-08T07:21:04.460Z,7.30
2023-01-08T07:23:33.003Z,6.40
2023-01-08T07:26:01.666Z,7.53
2023-01-08T07:28:31.719Z,7.33
2023-01-08T07:31:03.635Z,6.83
2023-01-08T07:33:31.940Z,7.40
2023-01-08T07:35:59.980Z,7.43
2023-01-08T07:38:28.007Z,7.20
2023-01-08T07:40:56.104Z,6.97
2023-01-08T07:43:25.209Z,6.20
2023-01-08T07:45:54.625Z,6.23
2023-01-08T07:48:22.635Z,5.80
2023-01-08T07:50:50.809Z,6.00
2023-01-08T07:53:18.877Z,5.47
2023-01-08T07:55:48.015Z,5.50
2023-01-08T07:58:16.054Z,4.63
2023-01-08T08:00:44.143Z,4.53
2023-01-08T08:03:13.577Z,4.70
2023-01-08T08:05:41.677Z,4.87
2023-01-08T08:08:10.872Z,4.57
2023-01-08T08:10:39.398Z,4.40
2023-01-08T08:13:07.467Z,4.87
2023-01-08T08:15:36.891Z,4.10
2023-01-08T08:18:05.333Z,4.37
2023-01-08T08:20:34.934Z,4.23
2023-01-08T08:23:03.987Z,4.40
2023-01-08T08:25:32.333Z,3.90
2023-01-08T08:28:01.276Z,4.33
2023-01-08T08:30:30.561Z,4.30
2023-01-08T08:33:00.362Z,4.20
2023-01-08T08:35:28.921Z,4.00
2023-01-08T08:37:58.883Z,4.70
2023-01-08T08:40:27.881Z,4.10
2023-01-08T08:42:57.745Z,3.87
2023-01-08T08:45:26.427Z,4.07
2023-01-08T08:47:54.816Z,3.60
2023-01-08T08:50:23.397Z,4.00
2023-01-08T08:52:51.430Z,4.20
2023-01-08T08:55:20.902Z,4.20
2023-01-08T08:57:49.566Z,3.80
2023-01-08T09:00:18.328Z,3.83
2023-01-08T09:02:46.480Z,4.03
2023-01-08T09:05:14.611Z,4.33
2023-01-08T09:07:42.637Z,6.60
2023-01-08T09:10:11.062Z,3.90
2023-01-08T09:12:41.023Z,3.80
2023-01-08T09:15:10.185Z,3.50
2023-01-08T09:17:38.277Z,4.40
2023-01-08T09:20:07.400Z,3.93
2023-01-08T09:22:35.536Z,4.23
2023-01-08T09:25:03.696Z,3.33
2023-01-08T09:27:31.739Z,4.20
2023-01-08T09:30:01.160Z,5.27
2023-01-08T09:32:29.263Z,3.40
2023-01-08T09:34:57.305Z,3.27
2023-01-08T09:37:25.599Z,3.20
2023-01-08T09:40:01.679Z,2.70
2023-01-08T09:42:31.677Z,3.10
2023-01-08T09:45:03.706Z,3.10
2023-01-08T09:47:37.683Z,2.90
2023-01-08T09:50:09.166Z,3.10
2023-01-08T09:52:38.683Z,3.17
2023-01-08T09:55:14.331Z,3.30
2023-01-08T09:57:43.017Z,2.90
2023-01-08T10:00:15.736Z,2.90
2023-01-08T10:02:44.577Z,2.93
2023-01-08T10:05:14.925Z,2.80
2023-01-08T10:07:43.615Z,3.20
2023-01-08T10:10:19.959Z,3.00
2023-01-08T10:12:50.169Z,3.17
2023-01-08T10:15:21.655Z,2.60
2023-01-08T10:17:56.489Z,2.80
2023-01-08T10:20:26.786Z,2.67
2023-01-08T10:22:56.554Z,2.87
2023-01-08T10:25:26.550Z,2.60
2023-01-08T10:27:59.046Z,2.93
2023-01-08T10:30:41.019Z,3.20
2023-01-08T10:33:14.288Z,2.77
2023-01-08T10:35:43.775Z,2.30
2023-01-08T10:38:27.804Z,2.87
2023-01-08T10:40:57.493Z,2.40
2023-01-08T10:43:30.647Z,2.80
2023-01-08T10:46:02.302Z,3.20
2023-01-08T10:48:35.341Z,3.03
2023-01-08T10:51:08.785Z,3.17
2023-01-08T10:53:36.959Z,2.77
2023-01-08T10:56:06.631Z,2.90
2023-01-08T10:58:44.990Z,2.87
2023-01-08T11:01:18.892Z,3.30
2023-01-08T11:03:57.089Z,2.50
2023-01-08T11:06:27.731Z,2.60
2023-01-08T11:08:57.863Z,2.40
2023-01-08T11:11:33.089Z,2.00
2023-01-08T11:14:04.345Z,2.00
2023-01-08T11:16:35.726Z,2.27
2023-01-08T11:19:04.507Z,2.10
2023-01-08T11:21:36.193Z,2.20
2023-01-08T11:24:13.404Z,2.20
2023-01-08T11:26:45.222Z,2.20
2023-01-08T11:29:17.119Z,2.10
2023-01-08T11:31:53.697Z,2.77
2023-01-08T11:34:29.777Z,2.17
2023-01-08T11:37:04.679Z,2.23
2023-01-08T11:39:35.088Z,2.10
2023-01-08T11:42:20.156Z,2.33
2023-01-08T11:44:59.129Z,2.17
2023-01-08T11:47:40.186Z,2.10
2023-01-08T11:50:20.163Z,2.43
2023-01-08T11:53:02.530Z,2.00
2023-01-08T11:55:46.334Z,2.30
2023-01-08T11:58:26.346Z,2.10
2023-01-08T12:01:07.472Z,2.63
2023-01-08T12:03:39.408Z,2.30
2023-01-08T12:06:23.949Z,2.40
2023-01-08T12:08:58.181Z,1.90
2023-01-08T12:11:29.668Z,2.33
2023-01-08T12:14:16.280Z,1.93
2023-01-08T12:17:03.238Z,2.23
2023-01-08T12:19:48.152Z,2.20
2023-01-08T12:22:34.563Z,2.40
2023-01-08T12:25:27.067Z,2.40
2023-01-08T12:28:03.506Z,2.40
2023-01-08T12:30:45.594Z,2.40
2023-01-08T12:33:21.276Z,2.70
2023-01-08T12:35:55.473Z,2.17
2023-01-08T12:38:29.441Z,2.40
2023-01-08T12:41:45.601Z,2.20
2023-01-08T12:48:34.149Z,2.10
2023-01-08T12:51:46.157Z,2.33
2023-01-08T12:54:24.194Z,2.20
2023-01-08T12:56:56.943Z,2.20
2023-01-08T12:59:38.453Z,2.53
2023-01-08T13:02:20.982Z,2.57
2023-01-08T13:04:49.853Z,1.90
2023-01-08T13:07:24.805Z,1.90
2023-01-08T13:09:57.867Z,2.00
2023-01-08T13:12:35.255Z,2.20
2023-01-08T13:15:03.595Z,2.00
2023-01-08T13:17:31.997Z,1.87
2023-01-08T13:20:02.912Z,2.17
2023-01-08T13:22:34.820Z,1.93
2023-01-08T13:25:30.194Z,1.77
2023-01-08T13:27:59.002Z,1.80
2023-01-08T13:30:39.543Z,2.17
2023-01-08T13:33:39.685Z,2.10
2023-01-08T13:36:23.318Z,1.97
2023-01-08T13:39:22.239Z,1.93
2023-01-08T13:42:01.438Z,1.70
2023-01-08T13:44:31.599Z,2.13
2023-01-08T13:47:02.434Z,1.87
2023-01-08T13:49:36.495Z,2.30
2023-01-08T13:52:05.001Z,1.87
2023-01-08T13:54:38.258Z,2.67
2023-01-08T13:57:13.443Z,6.57
2023-01-08T13:59:44.265Z,14.20
2023-01-08T14:02:50.485Z,7.47
2023-01-08T14:05:25.571Z,23.67
2023-01-08T14:07:53.791Z,8.03
2023-01-08T14:10:24.007Z,2.87
2023-01-08T14:12:52.559Z,5.37
2023-01-08T14:15:30.572Z,2.30
2023-01-08T14:17:59.092Z,4.67
2023-01-08T14:20:33.778Z,4.07
2023-01-08T14:23:03.359Z,1.80
2023-01-08T14:25:32.836Z,2.80
2023-01-08T14:28:03.408Z,2.53
2023-01-08T14:30:31.642Z,5.90
2023-01-08T14:33:00.826Z,6.27
2023-01-08T14:35:32.739Z,3.83
2023-01-08T14:38:02.736Z,4.37
2023-01-08T14:40:37.385Z,9.77
2023-01-08T14:43:10.662Z,2.57
2023-01-08T14:45:40.703Z,2.90
2023-01-08T14:48:17.621Z,3.37
2023-01-08T14:50:58.816Z,2.37
2023-01-08T14:53:30.843Z,2.13
2023-01-08T14:56:01.213Z,1.87
2023-01-08T14:58:35.553Z,2.10
2023-01-08T15:01:07.386Z,1.70
2023-01-08T15:03:38.408Z,2.30
2023-01-08T15:06:07.459Z,1.60
2023-01-08T15:08:37.996Z,1.90
2023-01-08T15:11:15.494Z,1.90
2023-01-08T15:13:43.597Z,1.80
2023-01-08T15:16:17.960Z,1.90
2023-01-08T15:18:48.438Z,2.23
2023-01-08T15:21:21.320Z,2.50
2023-01-08T15:23:52.448Z,1.90
2023-01-08T15:26:22.822Z,1.97
2023-01-08T15:28:53.793Z,1.80
2023-01-08T15:31:29.099Z,2.43
2023-01-08T15:33:58.050Z,2.17
2023-01-08T15:36:26.229Z,1.80
2023-01-08T15:38:54.291Z,1.83
2023-01-08T15:41:42.519Z,1.90
2023-01-08T15:44:12.837Z,1.50
2023-01-08T15:46:40.868Z,1.90
2023-01-08T15:49:08.908Z,1.80
2023-01-08T15:51:42.416Z,1.53
2023-01-08T15:54:12.760Z,1.70
2023-01-08T15:56:42.701Z,2.13
2023-01-08T15:59:11.489Z,1.60
2023-01-08T16:01:39.946Z,1.87
2023-01-08T16:04:08.406Z,1.73
2023-01-08T16:06:37.011Z,2.03
2023-01-08T16:09:05.264Z,1.67
2023-01-08T16:11:33.298Z,2.00
2023-01-08T16:14:02.701Z,2.20
2023-01-08T16:16:30.774Z,1.60
2023-01-08T16:19:00.658Z,1.77
2023-01-08T16:21:28.749Z,1.40
2023-01-08T16:23:56.867Z,1.80
2023-01-08T16:26:24.885Z,1.90
2023-01-08T16:28:52.921Z,1.63
2023-01-08T16:31:22.311Z,1.70
2023-01-08T16:33:50.429Z,2.47
2023-01-08T16:36:18.451Z,2.00
2023-01-08T16:38:49.312Z,1.70
2023-01-08T16:41:17.346Z,1.90
2023-01-08T16:43:45.809Z,2.30
2023-01-08T16:46:15.134Z,3.70
2023-01-08T16:48:46.731Z,1.93
2023-01-08T16:51:15.443Z,2.20
2023-01-08T16:53:43.698Z,1.57
2023-01-08T16:56:11.982Z,1.80
2023-01-08T16:58:40.030Z,1.80
2023-01-08T17:01:12.319Z,1.67
2023-01-08T17:03:40.584Z,2.20
2023-01-08T17:06:13.701Z,1.93
2023-01-08T17:08:43.129Z,2.17
2023-01-08T17:11:13.234Z,3.00
2023-01-08T17:13:42.059Z,3.00
2023-01-08T17:16:12.359Z,3.07
2023-01-08T17:18:40.909Z,2.30
2023-01-08T17:21:12.301Z,3.00
2023-01-08T17:23:40.682Z,1.90
2023-01-08T17:26:10.981Z,2.60
2023-01-08T17:28:39.071Z,2.20
2023-01-08T17:31:09.736Z,3.53
2023-01-08T17:33:38.772Z,2.73
2023-01-08T17:36:16.060Z,2.27
2023-01-08T17:38:44.429Z,2.60
2023-01-08T17:41:32.540Z,2.37
2023-01-08T17:44:00.677Z,2.60
2023-01-08T17:46:29.433Z,2.53
2023-01-08T17:48:57.449Z,2.40
2023-01-08T17:51:26.913Z,2.40
2023-01-08T17:53:54.992Z,2.73
2023-01-08T17:56:23.041Z,3.20
2023-01-08T17:58:51.313Z,2.70
2023-01-08T18:01:19.747Z,2.97
2023-01-08T18:03:47.917Z,3.00
2023-01-08T18:06:16.200Z,3.27
2023-01-08T18:08:45.632Z,2.90
2023-01-08T18:11:13.682Z,3.00
2023-01-08T18:13:42.435Z,3.27
2023-01-08T18:16:12.187Z,3.20
2023-01-08T18:18:41.202Z,2.97
2023-01-08T18:21:10.120Z,3.37
2023-01-08T18:23:38.225Z,3.30
2023-01-08T18:26:10.823Z,2.70
2023-01-08T18:28:40.106Z,2.90
2023-01-08T18:31:09.774Z,2.80
2023-01-08T18:33:38.597Z,3.20
2023-01-08T18:36:09.441Z,3.10
2023-01-08T18:38:38.209Z,3.10
2023-01-08T18:41:08.350Z,4.10
2023-01-08T18:43:37.071Z,4.73
2023-01-08T18:46:07.426Z,3.40
2023-01-08T18:48:36.409Z,3.07
2023-01-08T18:51:05.875Z,3.40
2023-01-08T18:53:34.739Z,3.20
2023-01-08T18:56:03.243Z,4.10
2023-01-08T18:58:32.610Z,3.40
2023-01-08T19:01:05.861Z,3.00
2023-01-08T19:03:34.473Z,2.60
2023-01-08T19:06:02.481Z,2.60
2023-01-08T19:08:30.551Z,2.47
2023-01-08T19:10:58.604Z,3.23
2023-01-08T19:13:26.617Z,3.50
2023-01-08T19:15:56.016Z,4.87
2023-01-08T19:18:24.067Z,4.10
2023-01-08T19:20:52.148Z,5.33
2023-01-08T19:23:20.584Z,4.00
2023-01-08T19:25:48.767Z,4.07
2023-01-08T19:28:16.847Z,4.50
2023-01-08T19:30:44.868Z,3.93
2023-01-08T19:33:16.477Z,4.30
2023-01-08T19:35:44.527Z,2.93
2023-01-08T19:38:12.550Z,4.40
2023-01-08T19:40:40.651Z,5.57
2023-01-08T19:43:26.276Z,4.20
2023-01-08T19:45:54.319Z,3.53
2023-01-08T19:48:23.795Z,3.70
2023-01-08T19:50:51.857Z,4.03
2023-01-08T19:53:19.890Z,3.40
2023-01-08T19:55:47.958Z,3.90
2023-01-08T19:58:16.823Z,3.50
2023-01-08T20:00:44.900Z,3.90
2023-01-08T20:03:12.979Z,4.50
2023-01-08T20:05:43.630Z,4.00
2023-01-08T20:08:11.638Z,4.43
2023-01-08T20:10:39.684Z,3.63
2023-01-08T20:13:07.750Z,3.63
2023-01-08T20:15:35.910Z,4.03
2023-01-08T20:18:04.191Z,4.53
2023-01-08T20:20:32.409Z,5.50
2023-01-08T20:23:01.826Z,4.87
2023-01-08T20:25:29.922Z,4.33
2023-01-08T20:27:57.957Z,4.53
2023-01-08T20:30:27.255Z,4.80
2023-01-08T20:32:55.297Z,4.43
2023-01-08T20:35:23.339Z,4.67
2023-01-08T20:37:51.320Z,4.60
2023-01-08T20:40:20.850Z,4.50
2023-01-08T20:42:48.864Z,5.13
2023-01-08T20:45:17.032Z,5.03
2023-01-08T20:47:45.016Z,4.70
2023-01-08T20:50:19.947Z,4.83
2023-01-08T20:52:49.387Z,4.83
2023-01-08T20:55:18.740Z,4.80
2023-01-08T20:57:49.243Z,4.47
2023-01-08T21:00:18.693Z,4.60
2023-01-08T21:02:48.994Z,4.70
2023-01-08T21:05:17.334Z,4.30
2023-01-08T21:07:45.964Z,4.37
2023-01-08T21:10:14.675Z,4.07
2023-01-08T21:12:43.383Z,4.27
2023-01-08T21:15:16.364Z,4.20
2023-01-08T21:17:45.277Z,4.13
2023-01-08T21:20:14.249Z,4.53
2023-01-08T21:22:43.282Z,4.53
2023-01-08T21:25:12.141Z,4.70
2023-01-08T21:27:40.670Z,4.80
2023-01-08T21:30:10.730Z,4.60
2023-01-08T21:32:40.223Z,4.30
2023-01-08T21:35:09.523Z,5.30
2023-01-08T21:37:38.722Z,4.87
2023-01-08T21:40:08.643Z,5.27
2023-01-08T21:42:57.225Z,4.83
2023-01-08T21:45:29.627Z,4.80
2023-01-08T21:47:59.833Z,3.80
2023-01-08T21:50:28.784Z,3.83
2023-01-08T21:53:14.799Z,3.60
2023-01-08T21:55:42.958Z,3.10
2023-01-08T21:58:11.799Z,3.10
2023-01-08T22:00:43.288Z,3.00
2023-01-08T22:03:13.974Z,3.03
2023-01-08T22:05:42.636Z,3.80
2023-01-08T22:08:18.931Z,3.47
2023-01-08T22:10:47.651Z,3.67
2023-01-08T22:13:16.453Z,3.77
2023-01-08T22:15:45.178Z,3.77
2023-01-08T22:18:14.688Z,4.57
2023-01-08T22:20:42.994Z,4.60
2023-01-08T22:23:11.240Z,4.63
2023-01-08T22:25:41.473Z,5.93
2023-01-08T22:28:11.532Z,5.70
2023-01-08T22:30:40.815Z,6.53
2023-01-08T22:33:08.900Z,6.00
2023-01-08T22:35:39.829Z,7.20
2023-01-08T22:38:07.896Z,6.53
2023-01-08T22:40:35.954Z,7.20
2023-01-08T22:43:03.996Z,6.67
2023-01-08T22:45:32.070Z,7.20
2023-01-08T22:48:00.198Z,7.70
2023-01-08T22:50:28.219Z,7.37
2023-01-08T22:52:57.618Z,7.60
2023-01-08T22:55:25.737Z,7.70
2023-01-08T22:57:53.798Z,7.73
2023-01-08T23:00:22.255Z,8.10
2023-01-08T23:02:50.317Z,8.40
2023-01-08T23:05:18.563Z,8.87
2023-01-08T23:07:46.546Z,9.13
2023-01-08T23:10:16.168Z,9.60
2023-01-08T23:12:44.269Z,12.83
2023-01-08T23:15:12.735Z,10.87
2023-01-08T23:17:51.567Z,9.67
2023-01-08T23:20:23.319Z,10.73
2023-01-08T23:22:51.305Z,9.93
2023-01-08T23:25:20.951Z,10.47
2023-01-08T23:27:48.947Z,10.50
2023-01-08T23:30:17.231Z,10.83
2023-01-08T23:32:45.231Z,10.67
2023-01-08T23:35:13.259Z,11.17
2023-01-08T23:37:41.252Z,11.27
2023-01-08T23:40:10.786Z,11.40
2023-01-08T23:42:40.149Z,12.47
2023-01-08T23:45:11.184Z,11.80
2023-01-08T23:47:39.346Z,11.63
2023-01-08T23:50:08.871Z,12.63
2023-01-08T23:52:36.887Z,11.87
2023-01-08T23:55:05.462Z,13.23
2023-01-08T23:57:33.452Z,12.93
